createdAt,value
2023-04-14T00:01:44.746Z,17.42
2023-04-14T00:04:38.706Z,19.13
2023-04-14T00:07:32.770Z,19.73
2023-04-14T00:10:19.689Z,17.80
2023-04-14T00:12:52.884Z,18.58
2023-04-14T00:15:39.629Z,17.50
2023-04-14T00:18:12.872Z,17.42
2023-04-14T00:21:00.803Z,18.52
2023-04-14T00:23:33.765Z,18.52
2023-04-14T00:26:23.756Z,17.90
2023-04-14T00:29:03.739Z,19.15
2023-04-14T00:31:50.635Z,19.27
2023-04-14T00:34:30.680Z,19.13
2023-04-14T00:37:17.700Z,17.63
2023-04-14T00:39:50.830Z,17.88
2023-04-14T00:42:38.619Z,17.50
2023-04-14T00:45:12.009Z,16.60
2023-04-14T00:47:58.811Z,17.23
2023-04-14T00:50:31.838Z,18.92
2023-04-14T00:53:19.722Z,16.10
2023-04-14T00:55:52.902Z,18.60
2023-04-14T00:58:39.623Z,20.58
2023-04-14T01:01:15.645Z,19.98
2023-04-14T01:04:03.714Z,19.15
2023-04-14T01:06:37.982Z,17.48
2023-04-14T01:09:24.634Z,19.98
2023-04-14T01:12:18.662Z,19.58
2023-04-14T01:15:39.844Z,19.83
2023-04-14T01:18:15.887Z,18.90
2023-04-14T01:21:14.658Z,18.17
2023-04-14T01:24:04.674Z,20.92
2023-04-14T01:26:52.673Z,19.92
2023-04-14T01:30:08.638Z,20.90
2023-04-14T01:33:05.657Z,20.48
2023-04-14T01:36:04.636Z,20.25
2023-04-14T01:38:47.671Z,20.83
2023-04-14T01:41:36.663Z,20.02
2023-04-14T01:44:32.650Z,21.70
2023-04-14T01:47:21.770Z,24.85
2023-04-14T01:50:03.661Z,24.83
2023-04-14T01:53:00.673Z,25.38
2023-04-14T01:55:55.681Z,23.73
2023-04-14T01:58:43.667Z,22.40
2023-04-14T02:01:23.704Z,20.25
2023-04-14T02:04:11.710Z,19.83
2023-04-14T02:06:53.679Z,20.63
2023-04-14T02:09:41.655Z,20.67
2023-04-14T02:12:18.779Z,22.70
2023-04-14T02:15:07.666Z,22.42
2023-04-14T02:17:41.865Z,22.10
2023-04-14T02:20:28.679Z,23.25
2023-04-14T02:23:01.731Z,22.33
2023-04-14T02:26:02.673Z,21.55
2023-04-14T02:28:46.666Z,23.35
2023-04-14T02:31:43.684Z,22.13
2023-04-14T02:34:37.499Z,23.92
2023-04-14T02:37:17.784Z,20.60
2023-04-14T02:40:12.666Z,20.98
2023-04-14T02:42:49.762Z,22.52
2023-04-14T02:45:39.695Z,23.27
2023-04-14T02:48:27.676Z,22.15
2023-04-14T02:51:16.680Z,24.23
2023-04-14T02:53:50.821Z,24.45
2023-04-14T02:56:38.658Z,26.38
2023-04-14T02:59:13.160Z,25.52
2023-04-14T03:02:00.750Z,25.02
2023-04-14T03:04:44.787Z,24.70
2023-04-14T03:07:40.678Z,23.80
2023-04-14T03:10:29.702Z,24.17
2023-04-14T03:13:04.844Z,23.35
2023-04-14T03:15:52.767Z,24.92
2023-04-14T03:18:27.800Z,25.52
2023-04-14T03:21:14.709Z,24.83
2023-04-14T03:23:48.567Z,21.98
2023-04-14T03:26:37.755Z,22.90
2023-04-14T03:29:15.169Z,23.38
2023-04-14T03:32:04.707Z,23.67
2023-04-14T03:34:39.780Z,24.23
2023-04-14T03:37:32.699Z,24.10
2023-04-14T03:40:08.804Z,24.95
2023-04-14T03:42:56.698Z,26.88
2023-04-14T03:45:29.832Z,24.83
2023-04-14T03:48:19.703Z,27.13
2023-04-14T03:50:54.901Z,24.38
2023-04-14T03:53:44.697Z,24.73
2023-04-14T03:56:19.834Z,24.75
2023-04-14T03:59:09.576Z,24.02
2023-04-14T04:01:45.106Z,25.13
2023-04-14T04:04:32.777Z,24.63
2023-04-14T04:07:05.795Z,24.85
2023-04-14T04:09:54.713Z,24.52
2023-04-14T04:12:29.799Z,23.60
2023-04-14T04:15:17.735Z,22.70
2023-04-14T04:17:53.923Z,23.20
2023-04-14T04:20:44.720Z,23.20
2023-04-14T04:23:18.834Z,21.88
2023-04-14T04:26:05.705Z,22.38
2023-04-14T04:28:45.721Z,24.15
2023-04-14T04:31:34.747Z,25.02
2023-04-14T04:34:08.885Z,26.02
2023-04-14T04:36:56.718Z,23.98
2023-04-14T04:39:36.717Z,23.30
2023-04-14T04:42:30.722Z,23.38
2023-04-14T04:45:17.737Z,25.30
2023-04-14T04:47:50.899Z,24.40
2023-04-14T04:50:37.721Z,23.98
2023-04-14T04:53:12.339Z,24.67
2023-04-14T04:55:58.733Z,25.38
2023-04-14T04:58:31.846Z,22.27
2023-04-14T05:01:18.763Z,21.35
2023-04-14T05:03:52.843Z,21.88
2023-04-14T05:06:45.722Z,20.98
2023-04-14T05:09:25.723Z,18.70
2023-04-14T05:12:12.730Z,19.75
2023-04-14T05:14:45.990Z,18.83
2023-04-14T05:17:32.749Z,20.80
2023-04-14T05:20:05.854Z,20.20
2023-04-14T05:22:52.738Z,16.95
2023-04-14T05:25:25.905Z,18.90
2023-04-14T05:28:12.737Z,18.33
2023-04-14T05:30:46.072Z,20.73
2023-04-14T05:33:32.763Z,18.65
2023-04-14T05:36:06.014Z,19.30
2023-04-14T05:38:52.767Z,18.77
2023-04-14T05:41:25.999Z,18.95
2023-04-14T05:44:12.742Z,21.27
2023-04-14T05:46:52.818Z,19.95
2023-04-14T05:49:46.783Z,21.05
2023-04-14T05:52:40.759Z,17.67
2023-04-14T05:55:27.747Z,19.38
2023-04-14T05:58:07.746Z,19.42
2023-04-14T06:00:54.748Z,17.92
2023-04-14T06:03:28.457Z,16.25
2023-04-14T06:06:15.760Z,15.65
2023-04-14T06:08:55.792Z,16.52
2023-04-14T06:11:49.743Z,15.55
2023-04-14T06:14:36.782Z,15.05
2023-04-14T06:17:09.898Z,13.75
2023-04-14T06:19:56.766Z,14.93
2023-04-14T06:22:29.998Z,14.70
2023-04-14T06:25:17.777Z,12.25
2023-04-14T06:27:50.892Z,12.98
2023-04-14T06:30:40.746Z,14.00
2023-04-14T06:33:13.927Z,12.73
2023-04-14T06:36:01.790Z,13.40
2023-04-14T06:38:41.789Z,13.85
2023-04-14T06:41:35.780Z,14.48
2023-04-14T06:44:22.790Z,13.20
2023-04-14T06:46:57.243Z,12.50
2023-04-14T06:49:43.767Z,14.35
2023-04-14T06:52:23.781Z,14.68
2023-04-14T06:55:13.706Z,14.82
2023-04-14T06:57:53.823Z,14.50
2023-04-14T07:00:40.737Z,13.15
2023-04-14T07:03:21.830Z,12.32
2023-04-14T07:06:19.797Z,13.50
2023-04-14T07:09:13.785Z,13.20
2023-04-14T07:12:00.797Z,13.60
2023-04-14T07:14:33.873Z,12.32
2023-04-14T07:17:20.833Z,13.05
2023-04-14T07:19:53.936Z,14.02
2023-04-14T07:22:40.792Z,13.27
2023-04-14T07:25:20.790Z,12.60
2023-04-14T07:28:07.840Z,13.20
2023-04-14T07:30:47.811Z,13.13
2023-04-14T07:33:37.794Z,22.27
2023-04-14T07:36:10.994Z,20.27
2023-04-14T07:38:58.804Z,12.90
2023-04-14T07:41:32.898Z,12.00
2023-04-14T07:44:19.869Z,14.05
2023-04-14T07:46:52.893Z,12.68
2023-04-14T07:49:39.821Z,13.63
2023-04-14T07:52:19.813Z,14.65
2023-04-14T07:55:13.814Z,12.45
2023-04-14T07:58:00.812Z,12.82
2023-04-14T08:00:33.896Z,14.73
2023-04-14T08:03:20.968Z,13.88
2023-04-14T08:05:53.933Z,11.68
2023-04-14T08:08:41.812Z,11.15
2023-04-14T08:11:14.956Z,12.80
2023-04-14T08:14:01.906Z,13.80
2023-04-14T08:16:38.965Z,13.23
2023-04-14T08:19:25.861Z,12.35
2023-04-14T08:21:58.935Z,12.77
2023-04-14T08:24:45.847Z,13.40
2023-04-14T08:27:18.917Z,11.35
2023-04-14T08:30:05.830Z,11.35
2023-04-14T08:32:45.892Z,11.48
2023-04-14T08:35:35.149Z,12.73
2023-04-14T08:38:16.814Z,12.13
2023-04-14T08:41:10.823Z,11.60
2023-04-14T08:44:04.833Z,11.73
2023-04-14T08:46:57.823Z,11.10
2023-04-14T08:49:45.834Z,11.05
2023-04-14T08:52:40.919Z,12.23
2023-04-14T08:55:31.667Z,12.23
2023-04-14T08:58:07.485Z,11.23
2023-04-14T09:00:53.935Z,12.02
2023-04-14T09:03:27.116Z,12.43
2023-04-14T09:06:13.851Z,14.00
2023-04-14T09:08:53.841Z,11.43
2023-04-14T09:11:48.870Z,12.02
2023-04-14T09:14:42.873Z,11.73
2023-04-14T09:17:38.888Z,12.82
2023-04-14T09:20:36.484Z,11.57
2023-04-14T09:23:21.849Z,11.05
2023-04-14T09:26:08.862Z,11.32
2023-04-14T09:28:42.957Z,10.40
2023-04-14T09:31:30.948Z,11.75
2023-04-14T09:34:10.972Z,12.15
2023-04-14T09:37:17.862Z,11.60
2023-04-14T09:40:04.873Z,11.43
2023-04-14T09:42:47.142Z,10.73
2023-04-14T09:45:50.870Z,11.05
2023-04-14T09:48:24.960Z,11.02
2023-04-14T09:51:15.851Z,12.15
2023-04-14T09:53:49.307Z,11.77
2023-04-14T09:56:35.853Z,13.05
2023-04-14T09:59:16.853Z,11.90
2023-04-14T10:02:05.968Z,12.30
2023-04-14T10:04:45.905Z,11.60
2023-04-14T10:07:33.891Z,12.45
2023-04-14T10:10:22.883Z,12.00
2023-04-14T10:13:09.907Z,12.27
2023-04-14T10:15:43.498Z,11.43
2023-04-14T10:18:29.866Z,11.45
2023-04-14T10:21:02.986Z,11.38
2023-04-14T10:23:50.888Z,10.55
2023-04-14T10:26:26.334Z,10.45
2023-04-14T10:29:12.875Z,10.50
2023-04-14T10:31:56.030Z,10.18
2023-04-14T10:34:51.907Z,10.25
2023-04-14T10:37:39.890Z,11.43
2023-04-14T10:40:23.262Z,10.77
2023-04-14T10:43:18.888Z,11.23
2023-04-14T10:46:02.083Z,11.27
2023-04-14T10:48:53.893Z,11.85
2023-04-14T10:51:27.011Z,11.27
2023-04-14T10:54:31.922Z,10.40
2023-04-14T10:57:27.926Z,10.82
2023-04-14T11:00:33.910Z,10.82
2023-04-14T11:03:32.220Z,11.52
2023-04-14T11:06:26.009Z,11.40
2023-04-14T11:09:43.926Z,11.05
2023-04-14T11:12:34.946Z,11.02
2023-04-14T11:15:11.110Z,10.85
2023-04-14T11:17:57.937Z,10.30
2023-04-14T11:20:31.285Z,11.02
2023-04-14T11:23:20.941Z,10.50
2023-04-14T11:25:56.687Z,11.25
2023-04-14T11:28:44.965Z,10.93
2023-04-14T11:31:23.393Z,12.48
2023-04-14T11:34:15.923Z,11.25
2023-04-14T11:36:49.015Z,10.55
2023-04-14T11:39:36.934Z,11.07
2023-04-14T11:42:11.049Z,10.40
2023-04-14T11:45:06.962Z,10.38
2023-04-14T11:47:40.118Z,11.82
2023-04-14T11:50:27.014Z,13.60
2023-04-14T11:53:08.406Z,11.50
2023-04-14T11:55:56.933Z,12.38
2023-04-14T11:58:39.961Z,13.40
2023-04-14T12:01:36.918Z,10.60
2023-04-14T12:04:31.050Z,10.93
2023-04-14T12:07:25.947Z,11.48
2023-04-14T12:10:14.004Z,10.75
2023-04-14T12:12:47.048Z,11.13
2023-04-14T12:15:34.942Z,14.10
2023-04-14T12:18:09.116Z,15.77
2023-04-14T12:21:10.818Z,11.68
2023-04-14T12:23:48.394Z,13.98
2023-04-14T12:26:34.998Z,13.05
2023-04-14T12:29:16.960Z,13.25
2023-04-14T12:32:04.049Z,10.50
2023-04-14T12:34:37.053Z,10.43
2023-04-14T12:37:23.982Z,10.65
2023-04-14T12:40:07.950Z,10.82
2023-04-14T12:43:03.960Z,10.90
2023-04-14T12:45:59.958Z,9.90
2023-04-14T12:48:58.983Z,10.90
2023-04-14T12:51:52.955Z,10.90
2023-04-14T12:54:59.017Z,11.10
2023-04-14T12:57:41.982Z,12.23
2023-04-14T13:00:37.019Z,11.40
2023-04-14T13:03:24.060Z,11.85
2023-04-14T13:06:10.973Z,11.73
2023-04-14T13:09:03.240Z,11.32
2023-04-14T13:11:43.980Z,12.48
2023-04-14T13:14:39.451Z,12.60
2023-04-14T13:17:33.061Z,11.52
2023-04-14T13:20:19.967Z,11.38
2023-04-14T13:23:00.119Z,11.25
2023-04-14T13:25:53.970Z,12.95
2023-04-14T13:28:40.978Z,14.80
2023-04-14T13:31:14.090Z,13.55
2023-04-14T13:34:00.994Z,12.05
2023-04-14T13:36:34.260Z,12.30
2023-04-14T13:39:20.985Z,12.25
2023-04-14T13:41:54.093Z,12.00
2023-04-14T13:44:41.986Z,11.60
2023-04-14T13:47:16.766Z,10.55
2023-04-14T13:50:03.009Z,10.93
2023-04-14T13:52:42.988Z,12.80
2023-04-14T13:55:30.010Z,13.05
2023-04-14T13:58:03.150Z,11.55
2023-04-14T14:00:50.004Z,11.45
2023-04-14T14:03:23.315Z,11.10
2023-04-14T14:06:16.985Z,10.90
2023-04-14T14:09:11.078Z,10.80
2023-04-14T14:11:46.600Z,10.88
2023-04-14T14:14:32.999Z,11.10
2023-04-14T14:17:13.017Z,10.90
2023-04-14T14:20:00.019Z,11.65
2023-04-14T14:22:33.139Z,15.77
2023-04-14T14:25:21.257Z,13.60
2023-04-14T14:28:03.020Z,12.15
2023-04-14T14:30:57.060Z,12.68
2023-04-14T14:33:45.026Z,15.48
2023-04-14T14:36:18.108Z,15.68
2023-04-14T14:39:05.048Z,16.85
2023-04-14T14:41:38.213Z,15.93
2023-04-14T14:44:25.029Z,15.48
2023-04-14T14:47:06.191Z,16.92
2023-04-14T14:50:01.204Z,16.13
2023-04-14T14:52:57.067Z,14.55
2023-04-14T14:55:50.985Z,17.58
2023-04-14T14:58:38.031Z,17.25
2023-04-14T15:01:17.979Z,21.85
2023-04-14T15:04:05.263Z,21.17
2023-04-14T15:06:45.991Z,24.13
2023-04-14T15:09:39.984Z,22.27
2023-04-14T15:12:34.107Z,17.95
2023-04-14T15:15:28.023Z,17.00
2023-04-14T15:18:15.014Z,21.98
2023-04-14T15:20:55.048Z,21.55
2023-04-14T15:23:51.043Z,22.23
2023-04-14T15:26:38.093Z,21.55
2023-04-14T15:29:11.175Z,15.23
2023-04-14T15:31:58.138Z,15.13
2023-04-14T15:34:31.189Z,16.58
2023-04-14T15:37:18.078Z,15.73
2023-04-14T15:39:51.413Z,16.23
2023-04-14T15:42:38.078Z,16.55
2023-04-14T15:45:19.088Z,12.48
2023-04-14T15:48:13.068Z,13.25
2023-04-14T15:51:00.055Z,15.93
2023-04-14T15:53:33.258Z,14.80
2023-04-14T15:56:20.074Z,14.15
2023-04-14T15:59:00.085Z,13.88
2023-04-14T16:01:54.280Z,16.67
2023-04-14T16:04:41.118Z,21.45
2023-04-14T16:07:14.311Z,19.10
2023-04-14T16:10:01.161Z,18.92
2023-04-14T16:12:42.092Z,21.95
2023-04-14T16:15:29.066Z,16.15
2023-04-14T16:18:02.750Z,17.48
2023-04-14T16:20:49.084Z,19.40
2023-04-14T16:23:29.093Z,21.67
2023-04-14T16:26:23.093Z,20.60
2023-04-14T16:29:10.093Z,20.38
2023-04-14T16:31:50.156Z,19.38
2023-04-14T16:34:44.095Z,17.63
2023-04-14T16:37:33.106Z,15.45
2023-04-14T16:40:13.104Z,16.85
2023-04-14T16:43:00.091Z,20.45
2023-04-14T16:45:33.365Z,23.33
2023-04-14T16:48:20.126Z,31.98
2023-04-14T16:51:00.151Z,23.65
2023-04-14T16:53:54.113Z,19.05
2023-04-14T16:56:42.117Z,21.80
2023-04-14T16:59:15.197Z,19.17
2023-04-14T17:02:02.290Z,21.98
2023-04-14T17:04:36.517Z,19.85
2023-04-14T17:07:23.074Z,19.48
2023-04-14T17:10:03.116Z,17.17
2023-04-14T17:12:50.101Z,15.55
2023-04-14T17:15:23.738Z,13.50
2023-04-14T17:18:10.106Z,13.65
2023-04-14T17:20:46.309Z,14.00
2023-04-14T17:23:34.174Z,13.52
2023-04-14T17:26:07.244Z,14.57
2023-04-14T17:28:54.109Z,15.93
2023-04-14T17:31:34.131Z,16.70
2023-04-14T17:34:28.089Z,14.77
2023-04-14T17:37:22.092Z,15.95
2023-04-14T17:40:17.121Z,16.42
2023-04-14T17:43:04.117Z,14.13
2023-04-14T17:45:37.249Z,15.77
2023-04-14T17:48:24.079Z,18.27
2023-04-14T17:50:57.217Z,16.13
2023-04-14T17:53:44.092Z,14.82
2023-04-14T17:56:17.214Z,14.52
2023-04-14T17:59:05.119Z,13.38
2023-04-14T18:01:45.302Z,14.32
2023-04-14T18:04:39.119Z,15.55
2023-04-14T18:07:33.132Z,14.07
2023-04-14T18:10:20.119Z,12.60
2023-04-14T18:12:53.298Z,12.57
2023-04-14T18:15:40.137Z,13.23
2023-04-14T18:18:13.215Z,15.13
2023-04-14T18:21:00.146Z,15.75
2023-04-14T18:23:40.122Z,26.65
2023-04-14T18:26:34.115Z,34.60
2023-04-14T18:29:21.139Z,25.35
2023-04-14T18:31:55.149Z,36.47
2023-04-14T18:34:42.144Z,33.53
2023-04-14T18:37:15.860Z,21.67
2023-04-14T18:40:03.202Z,21.30
2023-04-14T18:42:43.134Z,21.40
2023-04-14T18:45:37.124Z,17.52
2023-04-14T18:48:24.141Z,18.20
2023-04-14T18:51:08.154Z,17.60
2023-04-14T18:53:55.161Z,17.38
2023-04-14T18:56:28.516Z,17.80
2023-04-14T18:59:16.133Z,17.63
2023-04-14T19:01:49.346Z,18.35
2023-04-14T19:04:37.156Z,24.15
2023-04-14T19:07:10.681Z,24.75
2023-04-14T19:09:57.156Z,21.42
2023-04-14T19:12:31.930Z,20.77
2023-04-14T19:15:20.265Z,16.98
2023-04-14T19:18:00.227Z,17.98
2023-04-14T19:20:47.107Z,17.67
2023-04-14T19:23:21.014Z,21.95
2023-04-14T19:26:09.135Z,22.58
2023-04-14T19:28:49.160Z,21.02
2023-04-14T19:31:43.191Z,22.73
2023-04-14T19:34:37.206Z,28.85
2023-04-14T19:37:24.161Z,22.02
2023-04-14T19:40:04.183Z,20.17
2023-04-14T19:42:51.167Z,19.50
2023-04-14T19:45:24.250Z,20.70
2023-04-14T19:48:22.745Z,18.52
2023-04-14T19:50:59.299Z,18.15
2023-04-14T19:53:46.197Z,16.60
2023-04-14T19:56:19.842Z,17.40
2023-04-14T19:59:06.214Z,15.60
2023-04-14T20:01:39.284Z,15.07
2023-04-14T20:04:27.315Z,15.07
2023-04-14T20:07:07.178Z,17.08
2023-04-14T20:10:01.173Z,16.30
2023-04-14T20:12:48.187Z,17.40
2023-04-14T20:15:21.276Z,18.40
2023-04-14T20:18:08.178Z,17.08
2023-04-14T20:20:48.180Z,15.88
2023-04-14T20:23:42.161Z,14.75
2023-04-14T20:26:29.196Z,16.30
2023-04-14T20:29:09.196Z,16.27
2023-04-14T20:31:56.190Z,13.45
2023-04-14T20:34:29.494Z,14.90
2023-04-14T20:37:16.168Z,15.40
2023-04-14T20:39:49.764Z,14.75
2023-04-14T20:42:36.184Z,16.38
2023-04-14T20:45:09.447Z,15.07
2023-04-14T20:47:56.227Z,13.38
2023-04-14T20:50:36.178Z,16.38
2023-04-14T20:53:33.225Z,13.55
2023-04-14T20:56:20.194Z,14.35
2023-04-14T20:58:53.316Z,14.63
2023-04-14T21:01:40.222Z,12.85
2023-04-14T21:04:20.353Z,15.68
2023-04-14T21:07:14.197Z,16.55
2023-04-14T21:10:08.194Z,16.42
2023-04-14T21:15:31.331Z,15.02
2023-04-14T21:16:16.308Z,15.00
2023-04-14T21:19:04.629Z,14.43
2023-04-14T21:21:38.283Z,15.07
2023-04-14T21:24:25.221Z,14.25
2023-04-14T21:26:58.347Z,13.10
2023-04-14T21:29:45.218Z,13.13
2023-04-14T21:32:18.545Z,12.95
2023-04-14T21:35:05.204Z,13.45
2023-04-14T21:37:39.765Z,14.00
2023-04-14T21:40:27.218Z,14.60
2023-04-14T21:43:00.847Z,13.68
2023-04-14T21:45:47.282Z,14.27
2023-04-14T21:48:27.227Z,14.82
2023-04-14T21:51:14.283Z,14.57
2023-04-14T21:53:47.357Z,16.25
2023-04-14T21:56:34.323Z,17.58
2023-04-14T21:59:14.246Z,19.63
2023-04-14T22:02:01.386Z,19.17
2023-04-14T22:04:41.312Z,18.38
2023-04-14T22:07:28.224Z,15.25
2023-04-14T22:10:08.258Z,17.48
2023-04-14T22:13:02.268Z,15.80
2023-04-14T22:15:50.310Z,15.85
2023-04-14T22:18:23.360Z,14.65
2023-04-14T22:21:11.274Z,15.00
2023-04-14T22:23:51.243Z,15.15
2023-04-14T22:26:45.234Z,15.23
2023-04-14T22:29:32.237Z,13.52
2023-04-14T22:32:05.482Z,13.02
2023-04-14T22:34:52.294Z,13.23
2023-04-14T22:37:25.327Z,12.88
2023-04-14T22:40:13.242Z,13.75
2023-04-14T22:42:46.612Z,14.65
2023-04-14T22:45:33.258Z,14.18
2023-04-14T22:48:07.050Z,14.68
2023-04-14T22:50:54.363Z,13.88
2023-04-14T22:53:34.350Z,14.23
2023-04-14T22:56:28.265Z,14.40
2023-04-14T22:59:24.212Z,15.27
2023-04-14T23:02:13.509Z,15.75
2023-04-14T23:04:53.428Z,16.42
2023-04-14T23:07:47.259Z,16.08
2023-04-14T23:10:41.317Z,17.08
2023-04-14T23:13:28.253Z,17.45
2023-04-14T23:16:01.558Z,18.27
2023-04-14T23:18:48.248Z,17.38
2023-04-14T23:21:22.563Z,15.82
2023-04-14T23:24:09.267Z,15.07
2023-04-14T23:26:42.344Z,15.10
2023-04-14T23:29:29.280Z,14.52
2023-04-14T23:32:02.432Z,14.35
2023-04-14T23:34:49.307Z,13.98
2023-04-14T23:37:29.312Z,14.10
2023-04-14T23:40:17.260Z,14.10
2023-04-14T23:42:57.280Z,14.35
2023-04-14T23:45:44.259Z,14.90
2023-04-14T23:48:17.405Z,14.25
2023-04-14T23:51:20.116Z,14.65
2023-04-14T23:54:01.287Z,14.38
2023-04-14T23:56:48.282Z,15.00
2023-04-14T23:59:21.943Z,15.05
